Time;durP1;ratioP1;P1;durP2;ratioP2;P2;SDS_P1;SDS_P2;PMS_P1;PMS_P2;Temp;Humidity;BMP_temperature;BMP_pressure;BME280_temperature;BME280_humidity;BME280_pressure;Samples;Min_cycle;Max_cycle;Signal;HPM_P1;HPM_P2
2022/06/06 00:00:10;;;;;;;5.85;4.13;;;;;;;16.96;83.14;98603.03;4987958;28;20022;-78
2022/06/06 00:02:36;;;;;;;4.22;3.85;;;;;;;16.97;82.78;98599.22;5003452;28;20029;-78
2022/06/06 00:05:02;;;;;;;5.53;4.28;;;;;;;16.91;83.27;98607.69;4987703;28;20045;-78
2022/06/06 00:07:27;;;;;;;4.55;4.13;;;;;;;16.95;83.20;98606.03;5006115;28;20385;-78
2022/06/06 00:09:53;;;;;;;4.60;4.20;;;;;;;16.88;83.09;98608.31;4990481;28;20037;-78
2022/06/06 00:12:20;;;;;;;4.05;3.75;;;;;;;16.88;83.52;98602.91;5019608;28;20045;-78
2022/06/06 00:14:45;;;;;;;4.72;4.10;;;;;;;16.84;83.71;98618.09;5006776;28;20021;-78
2022/06/06 00:17:12;;;;;;;6.05;4.50;;;;;;;16.83;83.22;98621.88;5004657;28;20144;-78
2022/06/06 00:19:39;;;;;;;6.05;4.50;;;;;;;16.84;83.08;98618.88;5005188;28;20040;-78
2022/06/06 00:22:04;;;;;;;4.50;3.47;;;;;;;16.64;84.60;98600.34;5003734;28;20041;-78
2022/06/06 00:24:29;;;;;;;6.65;4.18;;;;;;;16.68;83.84;98604.03;4987040;28;20073;-78
2022/06/06 00:26:56;;;;;;;6.55;3.78;;;;;;;16.65;83.97;98593.84;5001335;28;20033;-78
2022/06/06 00:29:22;;;;;;;5.43;4.18;;;;;;;16.65;83.72;98603.81;5006655;28;20084;-78
2022/06/06 00:34:51;;;;;;;6.90;4.07;;;;;;;16.60;83.66;98595.81;5008598;28;20041;-78
2022/06/06 00:37:21;;;;;;;4.63;4.22;;;;;;;16.69;83.37;98594.03;5007953;28;20037;-78
2022/06/06 00:39:47;;;;;;;5.50;4.25;;;;;;;16.52;84.29;98588.38;5001863;28;20041;-78
2022/06/06 00:42:18;;;;;;;6.53;3.80;;;;;;;16.61;83.60;98598.22;5004842;28;20025;-78
2022/06/06 00:44:44;;;;;;;5.18;3.58;;;;;;;16.59;84.05;98595.03;5002080;28;20064;-78
2022/06/06 00:47:24;;;;;;;7.00;4.07;;;;;;;16.62;83.53;98593.63;5006788;28;20478;-78
2022/06/06 00:49:59;;;;;;;6.05;4.03;;;;;;;16.55;83.54;98587.81;5001076;28;20032;-78
2022/06/06 00:52:35;;;;;;;8.90;4.10;;;;;;;16.51;83.47;98587.59;5006958;28;20088;-78
2022/06/06 00:55:04;;;;;;;4.93;3.47;;;;;;;16.62;83.11;98597.13;5001526;28;20034;-78
2022/06/06 00:57:34;;;;;;;5.63;3.70;;;;;;;16.59;83.37;98600.41;5017642;28;20040;-78
2022/06/06 01:00:03;;;;;;;5.40;4.70;;;;;;;16.46;83.81;98585.75;5003598;28;20033;-78
2022/06/06 01:02:29;;;;;;;4.28;3.72;;;;;;;16.56;83.29;98592.09;5003729;28;20037;-78
2022/06/06 01:04:55;;;;;;;4.05;3.63;;;;;;;16.54;84.02;98588.88;5005757;28;20089;-78
2022/06/06 01:07:20;;;;;;;4.68;3.75;;;;;;;16.56;83.63;98592.09;4968974;28;20464;-78
2022/06/06 01:09:46;;;;;;;4.95;3.78;;;;;;;16.47;84.20;98581.97;4987879;28;20136;-78
2022/06/06 01:12:16;;;;;;;5.00;3.85;;;;;;;16.54;83.59;98587.00;4988175;28;20057;-78
2022/06/06 01:14:48;;;;;;;7.75;4.22;;;;;;;16.53;83.83;98579.22;5002935;28;20022;-78
2022/06/06 01:17:37;;;;;;;4.65;3.95;;;;;;;16.34;84.15;98584.59;5005087;28;20037;-78
2022/06/06 01:20:38;;;;;;;6.10;3.92;;;;;;;16.37;84.16;98579.44;5004557;28;20026;-78
2022/06/06 01:23:22;;;;;;;4.13;3.83;;;;;;;16.48;83.96;98594.34;5004297;28;20026;-78
2022/06/06 01:26:03;;;;;;;5.85;3.83;;;;;;;16.47;83.68;98581.16;5003265;28;20349;-78
2022/06/06 01:28:53;;;;;;;3.63;3.33;;;;;;;16.53;84.09;98585.41;5007062;28;20040;-78
2022/06/06 01:31:39;;;;;;;4.03;3.42;;;;;;;16.43;83.93;98559.41;5008860;28;20448;-78
2022/06/06 01:34:06;;;;;;;5.80;3.60;;;;;;;16.35;84.71;98560.06;5008834;28;20469;-78
2022/06/06 01:36:35;;;;;;;5.60;3.65;;;;;;;16.51;83.92;98579.53;5005433;28;20064;-78
2022/06/06 01:39:05;;;;;;;5.80;3.97;;;;;;;16.47;84.60;98578.47;4999468;28;20084;-78
2022/06/06 01:42:06;;;;;;;4.05;3.70;;;;;;;16.46;84.48;98579.56;5007754;28;20038;-78
2022/06/06 01:44:43;;;;;;;4.30;3.78;;;;;;;16.44;84.20;98581.75;5010762;28;20033;-78
2022/06/06 01:47:14;;;;;;;5.20;4.13;;;;;;;16.37;84.17;98570.53;5005751;28;20037;-78
2022/06/06 01:49:40;;;;;;;7.47;3.92;;;;;;;16.42;84.21;98581.25;5010765;28;20092;-78
2022/06/06 01:52:12;;;;;;;5.80;4.45;;;;;;;16.37;84.51;98579.44;5005954;28;20033;-78
2022/06/06 01:54:38;;;;;;;5.97;3.90;;;;;;;16.48;84.02;98564.72;5009113;28;20030;-78
2022/06/06 01:57:07;;;;;;;4.93;4.47;;;;;;;16.42;84.11;98568.56;5010619;28;20095;-79
2022/06/06 01:59:33;;;;;;;5.25;3.95;;;;;;;16.49;83.86;98573.56;4970485;28;20038;-78
2022/06/06 02:01:58;;;;;;;4.38;3.97;;;;;;;16.38;83.67;98551.38;5006944;28;20036;-78
2022/06/06 02:04:24;;;;;;;4.07;3.78;;;;;;;16.47;84.27;98562.28;5008546;28;20042;-79
2022/06/06 02:06:50;;;;;;;3.97;3.67;;;;;;;16.39;83.42;98546.81;5006505;28;20440;-78
2022/06/06 02:09:16;;;;;;;4.85;4.10;;;;;;;16.38;84.37;98570.25;5006664;28;20029;-78
2022/06/06 02:11:41;;;;;;;5.68;3.97;;;;;;;16.34;83.81;98560.34;5007055;28;20401;-78
2022/06/06 02:14:07;;;;;;;4.75;4.22;;;;;;;16.24;84.74;98555.91;4990674;28;20106;-78
2022/06/06 02:16:33;;;;;;;5.30;4.32;;;;;;;16.32;84.86;98563.34;4990279;28;20088;-78
2022/06/06 02:18:58;;;;;;;5.05;4.55;;;;;;;16.30;84.84;98567.41;5005264;28;20037;-78
2022/06/06 02:21:24;;;;;;;4.30;3.90;;;;;;;16.36;84.57;98558.97;5006335;28;20460;-78
2022/06/06 02:23:49;;;;;;;4.72;3.85;;;;;;;16.35;83.70;98549.28;5006800;28;20040;-78
2022/06/06 02:26:16;;;;;;;6.25;4.60;;;;;;;16.19;85.13;98552.47;5006522;28;20120;-78
2022/06/06 02:28:42;;;;;;;5.80;3.95;;;;;;;16.35;84.41;98568.16;4987675;28;20474;-78
2022/06/06 02:31:08;;;;;;;4.43;4.03;;;;;;;16.23;84.58;98564.28;5008038;28;20140;-78
2022/06/06 02:33:34;;;;;;;6.93;4.45;;;;;;;16.16;84.87;98559.25;5006650;28;20117;-78
2022/06/06 02:36:00;;;;;;;5.82;4.45;;;;;;;16.21;84.84;98569.16;5006968;28;20359;-78
2022/06/06 02:38:27;;;;;;;3.85;3.30;;;;;;;16.20;84.55;98563.00;5003256;28;20120;-78
2022/06/06 02:40:54;;;;;;;3.85;3.35;;;;;;;16.30;84.29;98578.19;5007210;28;20541;-78
2022/06/06 02:43:21;;;;;;;4.28;3.88;;;;;;;16.18;84.33;98567.06;5007687;28;20061;-78
2022/06/06 02:45:48;;;;;;;4.40;4.00;;;;;;;16.17;84.28;98568.13;5007316;28;20125;-78
2022/06/06 02:48:14;;;;;;;4.40;4.00;;;;;;;16.25;84.40;98584.44;5003901;28;20175;-79
2022/06/06 02:50:40;;;;;;;4.40;4.00;;;;;;;16.27;84.47;98587.63;5004940;28;20108;-78
2022/06/06 02:53:05;;;;;;;4.30;3.90;;;;;;;16.14;84.95;98576.81;5006675;28;20197;-78
2022/06/06 02:55:32;;;;;;;4.85;3.85;;;;;;;16.18;85.17;98581.34;5006071;28;20379;-78
2022/06/06 02:57:59;;;;;;;4.07;3.70;;;;;;;16.26;84.48;98591.44;5005255;28;20033;-79
2022/06/06 03:00:27;;;;;;;4.68;4.07;;;;;;;16.27;85.20;98601.09;5021539;28;20466;-78
2022/06/06 03:02:53;;;;;;;6.05;4.07;;;;;;;16.24;84.72;98584.75;5006324;28;20029;-78
2022/06/06 03:05:19;;;;;;;4.47;3.85;;;;;;;16.29;84.83;98585.44;5004357;28;20044;-79
2022/06/06 03:08:05;;;;;;;4.53;4.13;;;;;;;16.29;85.34;98590.06;5008625;28;20390;-78
2022/06/06 03:11:09;;;;;;;;;;;;;;;16.33;85.49;98593.78;5006877;28;20029;-78
2022/06/06 03:14:05;;;;;;;5.90;4.00;;;;;;;16.24;85.25;98582.03;4988495;28;19944;-78
2022/06/06 03:23:11;;;;;;;7.75;4.57;;;;;;;16.29;85.22;98606.22;5003518;28;20095;-78
2022/06/06 03:26:20;;;;;;;7.70;4.65;;;;;;;16.27;85.65;98609.19;5014868;28;20243;-78
2022/06/06 03:29:12;;;;;;;7.72;4.05;;;;;;;16.30;85.47;98602.41;5006407;28;20030;-78
2022/06/06 03:31:53;;;;;;;5.00;3.95;;;;;;;16.14;85.75;98598.34;5007290;28;20042;-78
2022/06/06 03:34:40;;;;;;;6.20;4.70;;;;;;;16.23;85.67;98618.13;5004333;28;20401;-79
2022/06/06 03:37:34;;;;;;;5.47;4.70;;;;;;;16.30;85.35;98621.28;5005943;28;20383;-78
2022/06/06 03:40:19;;;;;;;6.07;4.38;;;;;;;16.28;85.06;98608.09;5000062;28;20460;-78
2022/06/06 03:43:17;;;;;;;4.88;4.40;;;;;;;16.30;85.23;98608.63;5007648;28;20059;-78
2022/06/06 03:46:14;;;;;;;5.65;4.10;;;;;;;16.31;85.15;98621.00;5003854;28;20033;-78
2022/06/06 03:49:00;;;;;;;5.45;4.68;;;;;;;16.37;84.70;98622.53;5019852;28;20049;-78
2022/06/06 03:51:31;;;;;;;6.15;4.82;;;;;;;16.38;84.80;98626.81;5004063;28;20047;-78
2022/06/06 03:54:31;;;;;;;5.45;4.68;;;;;;;16.39;84.60;98630.31;4999177;28;20038;-78
2022/06/06 03:56:59;;;;;;;5.22;4.72;;;;;;;16.35;84.73;98635.50;5013133;28;20088;-78
2022/06/06 03:59:27;;;;;;;5.00;4.40;;;;;;;16.33;85.22;98639.56;5005485;28;20531;-78
2022/06/06 04:01:55;;;;;;;4.45;4.05;;;;;;;16.36;84.66;98637.06;5002371;28;20025;-78
2022/06/06 04:04:23;;;;;;;5.53;4.20;;;;;;;16.40;84.73;98640.78;4968023;28;20405;-78
2022/06/06 04:06:51;;;;;;;7.22;4.97;;;;;;;16.37;84.78;98627.91;5001238;28;20039;-78
2022/06/06 04:09:16;;;;;;;5.00;4.50;;;;;;;16.37;84.63;98638.69;4998342;28;20038;-78
2022/06/06 04:12:13;;;;;;;4.93;4.45;;;;;;;16.32;84.77;98644.13;5003599;28;20033;-78
2022/06/06 04:15:01;;;;;;;7.88;4.88;;;;;;;16.30;85.15;98650.91;5003773;28;20390;-78
2022/06/06 04:17:50;;;;;;;7.28;4.40;;;;;;;16.32;85.21;98646.03;5002767;28;20025;-78
2022/06/06 04:20:36;;;;;;;6.50;4.70;;;;;;;16.12;85.18;98633.63;5005118;28;20038;-78
2022/06/06 04:23:23;;;;;;;9.13;4.90;;;;;;;16.32;85.39;98660.31;5002967;28;20022;-78
2022/06/06 04:26:26;;;;;;;5.60;4.95;;;;;;;16.29;85.64;98668.94;5002618;28;20026;-78
2022/06/06 04:29:07;;;;;;;5.47;4.90;;;;;;;16.34;85.22;98658.13;4988865;28;20048;-78
2022/06/06 04:32:02;;;;;;;5.95;4.78;;;;;;;16.24;84.88;98649.38;5003532;28;20390;-78
2022/06/06 04:34:40;;;;;;;9.07;6.13;;;;;;;16.27;84.58;98648.81;4999523;28;20029;-78
2022/06/06 04:37:21;;;;;;;8.82;5.00;;;;;;;16.35;84.75;98667.81;5005582;28;20146;-79
2022/06/06 04:40:18;;;;;;;6.47;5.20;;;;;;;16.34;84.87;98658.13;5006802;28;20288;-79
2022/06/06 04:42:46;;;;;;;;;;;;;;;16.48;84.51;98658.19;5018241;28;20092;-78
2022/06/06 04:45:21;;;;;;;6.43;4.57;;;;;;;16.46;84.69;98657.69;5005979;28;20343;-78
2022/06/06 04:47:48;;;;;;;7.05;4.90;;;;;;;16.56;84.44;98664.84;5006502;28;20034;-78
2022/06/06 04:50:18;;;;;;;8.65;4.88;;;;;;;16.53;84.19;98660.06;5007449;28;20042;-78
2022/06/06 04:52:50;;;;;;;5.80;4.63;;;;;;;16.61;83.81;98670.16;5010964;28;20057;-78
2022/06/06 04:55:17;;;;;;;6.95;5.70;;;;;;;16.63;84.36;98652.63;5011897;28;20104;-79
2022/06/06 04:57:47;;;;;;;8.07;5.60;;;;;;;16.68;83.49;98649.06;5021033;28;20026;-79
2022/06/06 05:00:13;;;;;;;7.40;5.13;;;;;;;16.69;83.49;98654.16;4990265;28;20034;-78
2022/06/06 05:02:38;;;;;;;11.68;5.05;;;;;;;16.74;83.70;98654.06;4990077;28;20041;-78
2022/06/06 05:05:05;;;;;;;6.15;5.45;;;;;;;16.74;83.24;98664.03;5008032;28;20449;-78
2022/06/06 05:07:33;;;;;;;7.35;5.72;;;;;;;16.69;83.57;98669.50;5007472;28;20038;-78
2022/06/06 05:10:20;;;;;;;8.68;6.00;;;;;;;16.73;83.79;98665.16;5009643;28;20030;-79
2022/06/06 05:13:14;;;;;;;8.55;6.13;;;;;;;16.66;84.99;98678.19;5003271;28;20922;-79
2022/06/06 05:15:42;;;;;;;7.45;5.63;;;;;;;16.67;84.16;98677.91;5004250;28;20025;-78
2022/06/06 05:18:46;;;;;;;8.30;6.35;;;;;;;16.73;84.18;98686.72;5007881;28;20022;-78
2022/06/06 05:21:18;;;;;;;7.47;6.32;;;;;;;16.80;83.35;98681.75;5004578;28;20045;-78
2022/06/06 05:24:01;;;;;;;11.23;5.97;;;;;;;16.76;83.16;98678.03;5009308;28;20323;-78
2022/06/06 05:26:53;;;;;;;7.70;6.65;;;;;;;16.75;83.46;98687.22;5002547;28;20030;-78
2022/06/06 05:29:31;;;;;;;12.55;7.15;;;;;;;16.80;83.41;98674.47;5004855;28;20135;-79
2022/06/06 05:32:05;;;;;;;11.05;7.28;;;;;;;16.87;83.50;98687.56;5002925;28;20052;-78
2022/06/06 05:34:50;;;;;;;13.32;7.15;;;;;;;16.83;82.51;98665.00;5007537;28;20447;-78
2022/06/06 05:37:42;;;;;;;11.27;6.90;;;;;;;17.05;82.24;98684.88;5009888;28;20038;-78
2022/06/06 05:40:32;;;;;;;10.63;7.38;;;;;;;17.08;81.82;98689.66;5020468;28;20044;-78
2022/06/06 05:43:10;;;;;;;9.73;7.32;;;;;;;17.14;81.95;98688.50;5019572;28;20164;-78
2022/06/06 05:45:49;;;;;;;9.68;7.72;;;;;;;17.24;81.66;98692.91;5004876;28;20505;-79
2022/06/06 05:48:33;;;;;;;8.70;6.95;;;;;;;17.28;81.16;98688.53;5004151;28;20030;-79
2022/06/06 05:51:13;;;;;;;11.05;8.77;;;;;;;17.27;82.36;98683.44;5003091;28;20507;-79
2022/06/06 05:53:48;;;;;;;10.60;7.28;;;;;;;17.25;81.30;98687.22;5003013;28;20024;-78
2022/06/06 05:56:47;;;;;;;11.63;8.85;;;;;;;17.29;80.97;98700.13;5002078;28;20108;-79
2022/06/06 05:59:40;;;;;;;12.38;8.00;;;;;;;17.36;80.40;98689.75;5003405;28;20464;-78
2022/06/06 06:02:33;;;;;;;14.15;9.52;;;;;;;17.52;80.34;98704.59;5000152;28;20091;-78
2022/06/06 06:05:16;;;;;;;13.60;9.20;;;;;;;17.39;80.35;98689.16;5006788;28;20040;-78
2022/06/06 06:07:59;;;;;;;12.65;8.93;;;;;;;17.42;80.44;98710.97;5007253;28;20048;-78
2022/06/06 06:11:15;;;;;;;14.82;9.88;;;;;;;17.45;79.85;98704.94;5006783;28;20030;-79
2022/06/06 06:14:13;;;;;;;11.70;8.73;;;;;;;17.45;79.36;98704.94;4947434;28;20039;-78
2022/06/06 06:16:45;;;;;;;15.70;10.13;;;;;;;17.51;79.52;98709.22;5004152;28;20037;-79
2022/06/06 06:19:22;;;;;;;14.60;10.15;;;;;;;17.63;81.06;98709.53;5008049;28;20052;-78
2022/06/06 06:21:54;;;;;;;11.05;8.95;;;;;;;17.69;78.89;98716.44;5008307;28;20323;-78
2022/06/06 06:24:26;;;;;;;13.85;9.52;;;;;;;17.72;77.90;98715.03;5006502;28;20037;-78
2022/06/06 06:26:54;;;;;;;17.13;10.93;;;;;;;17.90;77.57;98717.69;5001804;28;20030;-78
2022/06/06 06:29:20;;;;;;;12.88;9.45;;;;;;;17.92;76.94;98720.06;5009165;28;20041;-78
2022/06/06 06:32:10;;;;;;;15.82;10.07;;;;;;;17.90;77.53;98728.47;5007305;28;20030;-78
2022/06/06 06:34:48;;;;;;;14.05;9.80;;;;;;;17.87;77.16;98729.06;5007496;28;20030;-78
2022/06/06 06:37:26;;;;;;;16.40;10.65;;;;;;;18.02;76.61;98729.88;5012783;28;20426;-78
2022/06/06 06:40:17;;;;;;;13.80;9.30;;;;;;;18.08;76.53;98731.38;5012420;28;20022;-78
2022/06/06 06:42:57;;;;;;;14.70;10.35;;;;;;;18.11;76.42;98728.09;5011545;28;20527;-78
2022/06/06 06:45:28;;;;;;;12.98;9.77;;;;;;;18.29;76.01;98722.56;5009142;28;20041;-78
2022/06/06 06:48:05;;;;;;;17.23;10.30;;;;;;;18.12;75.97;98718.88;5021838;28;20129;-78
2022/06/06 06:50:36;;;;;;;13.82;9.70;;;;;;;18.06;76.54;98712.78;5007565;28;20026;-78
2022/06/06 06:53:10;;;;;;;15.38;9.70;;;;;;;18.04;75.92;98719.59;5008651;28;20477;-78
2022/06/06 06:55:55;;;;;;;12.93;9.27;;;;;;;18.13;75.53;98718.56;5025548;28;20053;-78
2022/06/06 06:59:04;;;;;;;13.48;8.90;;;;;;;18.08;75.63;98728.69;5004832;28;20042;-79
2022/06/06 07:08:35;;;;;;;9.80;7.88;;;;;;;18.35;74.48;98732.16;5009296;28;20124;-79
2022/06/06 07:11:20;;;;;;;13.30;8.98;;;;;;;18.15;75.19;98731.78;5005806;28;20543;-78
2022/06/06 07:14:02;;;;;;;10.68;7.55;;;;;;;18.33;74.35;98720.06;4999599;28;20025;-79
2022/06/06 07:16:31;;;;;;;15.20;8.68;;;;;;;18.32;73.99;98729.28;5001782;28;20458;-78
2022/06/06 07:19:03;;;;;;;9.52;6.97;;;;;;;18.35;73.66;98731.38;5002052;28;20026;-79
2022/06/06 07:21:31;;;;;;;8.90;7.22;;;;;;;18.41;75.28;98728.25;5006926;28;20032;-79
2022/06/06 07:24:03;;;;;;;9.95;8.15;;;;;;;18.58;73.09;98725.78;5006827;28;20064;-79
2022/06/06 07:26:28;;;;;;;8.55;6.88;;;;;;;18.62;73.03;98720.56;5004858;28;20030;-78
2022/06/06 07:28:54;;;;;;;10.50;6.82;;;;;;;18.73;71.70;98718.44;5001839;28;20034;-79
2022/06/06 07:31:37;;;;;;;10.18;6.80;;;;;;;18.70;72.28;98731.47;5002923;28;20047;-78
2022/06/06 07:34:24;;;;;;;8.43;6.38;;;;;;;18.68;72.07;98738.25;5006767;28;20041;-78
2022/06/06 07:37:19;;;;;;;9.77;7.18;;;;;;;18.79;72.03;98746.94;5007218;28;20737;-78
2022/06/06 07:39:53;;;;;;;9.35;6.68;;;;;;;18.83;71.65;98748.75;5020203;28;20476;-79
2022/06/06 07:42:51;;;;;;;12.38;6.97;;;;;;;18.77;71.59;98741.03;5001360;28;20049;-78
2022/06/06 07:45:21;;;;;;;7.72;6.00;;;;;;;18.79;72.24;98734.25;5002844;28;20528;-79
2022/06/06 07:48:24;;;;;;;6.65;6.03;;;;;;;18.79;71.23;98739.66;5000345;28;20033;-79
2022/06/06 07:51:06;;;;;;;7.78;6.03;;;;;;;18.68;71.14;98743.66;5014956;28;20130;-79
2022/06/06 07:53:45;;;;;;;6.63;5.80;;;;;;;18.82;70.24;98722.81;5003641;28;20053;-79
2022/06/06 07:56:24;;;;;;;8.20;6.00;;;;;;;18.88;70.12;98728.91;5005980;28;20477;-79
2022/06/06 07:58:55;;;;;;;7.93;5.97;;;;;;;18.90;70.37;98729.41;5007136;28;20038;-78
2022/06/06 08:01:47;;;;;;;8.25;4.93;;;;;;;18.78;70.36;98743.47;5003017;28;20022;-79
2022/06/06 08:04:15;;;;;;;9.73;6.30;;;;;;;18.81;70.15;98756.38;5002338;28;20045;-79
2022/06/06 08:06:54;;;;;;;5.32;4.82;;;;;;;18.89;70.11;98744.84;4997201;28;20245;-79
2022/06/06 08:09:31;;;;;;;8.10;5.65;;;;;;;19.10;69.38;98732.44;5010114;28;20028;-79
2022/06/06 08:12:24;;;;;;;7.00;5.00;;;;;;;19.12;68.88;98740.25;5000479;28;20033;-78
2022/06/06 08:14:49;;;;;;;8.40;5.88;;;;;;;19.20;67.88;98743.03;5009351;28;20045;-79
2022/06/06 08:17:24;;;;;;;7.85;5.93;;;;;;;19.28;68.34;98733.38;5001615;28;20513;-78
2022/06/06 08:20:03;;;;;;;6.18;5.50;;;;;;;19.33;67.90;98733.25;5002522;28;20232;-78
2022/06/06 08:22:30;;;;;;;7.55;5.68;;;;;;;19.34;67.77;98726.72;4999172;28;20092;-78
2022/06/06 08:25:01;;;;;;;7.88;5.47;;;;;;;19.26;67.84;98732.88;4998139;28;20038;-78
2022/06/06 08:27:28;;;;;;;8.88;5.78;;;;;;;19.13;69.07;98734.53;5011701;28;20029;-77
2022/06/06 08:29:53;;;;;;;6.80;5.53;;;;;;;18.78;69.45;98727.25;5006869;28;20065;-78
2022/06/06 08:32:19;;;;;;;18.17;5.55;;;;;;;18.85;69.71;98743.81;5004131;28;20514;-78
2022/06/06 08:34:47;;;;;;;8.02;4.90;;;;;;;18.97;68.28;98736.00;5003383;28;20053;-78
2022/06/06 08:37:32;;;;;;;5.88;5.20;;;;;;;19.02;68.99;98735.09;5002353;28;20033;-78
2022/06/06 08:40:17;;;;;;;10.13;5.45;;;;;;;19.05;68.89;98743.38;5025563;28;20049;-77
2022/06/06 08:43:16;;;;;;;30.85;21.88;;;;;;;19.05;67.31;98732.56;5006892;28;20026;-77
2022/06/06 08:46:09;;;;;;;133.55;85.25;;;;;;;19.31;68.58;98728.13;5008314;28;20022;-77
2022/06/06 08:48:46;;;;;;;62.08;41.03;;;;;;;19.43;68.11;98735.75;5006033;28;20034;-78
2022/06/06 08:51:50;;;;;;;17.42;11.38;;;;;;;19.42;66.57;98728.72;5009566;28;20409;-77
2022/06/06 08:54:34;;;;;;;12.85;7.43;;;;;;;19.25;66.06;98725.84;5008434;28;20056;-77
2022/06/06 08:57:12;;;;;;;15.80;6.43;;;;;;;19.31;66.51;98727.34;5006896;28;20112;-77
2022/06/06 09:00:04;;;;;;;9.25;5.35;;;;;;;19.34;66.56;98735.69;5008960;28;20041;-78
2022/06/06 09:02:48;;;;;;;9.40;4.68;;;;;;;19.14;66.83;98746.16;5006068;28;20026;-77
2022/06/06 09:05:38;;;;;;;7.38;4.00;;;;;;;19.29;66.26;98734.97;5011149;28;20095;-77
2022/06/06 09:08:10;;;;;;;43.17;7.18;;;;;;;19.49;66.06;98739.09;5010784;28;20061;-78
2022/06/06 09:11:03;;;;;;;18.92;4.35;;;;;;;19.60;65.54;98727.72;5008312;28;20453;-78
2022/06/06 09:13:50;;;;;;;6.20;3.50;;;;;;;19.78;66.60;98736.75;5012228;28;20486;-79
2022/06/06 09:16:45;;;;;;;6.10;3.63;;;;;;;20.05;65.76;98736.56;5008761;28;20022;-78
2022/06/06 09:19:46;;;;;;;9.55;3.47;;;;;;;20.10;64.87;98728.28;4998911;28;20049;-78
2022/06/06 09:22:39;;;;;;;4.82;3.47;;;;;;;20.37;64.70;98732.72;5008419;28;20037;-79
2022/06/06 09:25:21;;;;;;;9.88;3.05;;;;;;;20.36;64.00;98731.09;5009332;28;20029;-78
2022/06/06 09:28:11;;;;;;;10.60;3.45;;;;;;;20.25;62.97;98735.25;5007893;28;20026;-78
2022/06/06 09:31:01;;;;;;;10.50;4.25;;;;;;;20.58;63.82;98731.00;5006383;28;20671;-78
2022/06/06 09:34:03;;;;;;;9.88;4.13;;;;;;;20.40;63.04;98729.38;5020916;28;20025;-78
2022/06/06 09:36:59;;;;;;;6.45;3.22;;;;;;;20.31;61.73;98720.41;4995219;28;20044;-78
2022/06/06 09:39:25;;;;;;;5.30;3.13;;;;;;;20.35;63.04;98719.47;5003958;28;20049;-78
2022/06/06 09:42:20;;;;;;;6.95;3.53;;;;;;;20.54;62.35;98703.72;5007987;28;20454;-78
2022/06/06 09:45:17;;;;;;;5.13;3.13;;;;;;;20.31;62.08;98710.38;5004787;28;20390;-79
2022/06/06 09:48:01;;;;;;;17.15;4.35;;;;;;;20.41;60.72;98722.81;5005825;28;20042;-78
2022/06/06 09:50:26;;;;;;;4.25;2.60;;;;;;;20.65;60.59;98723.19;5003762;28;20168;-78
2022/06/06 09:53:01;;;;;;;3.38;2.90;;;;;;;20.81;60.12;98711.59;5002253;28;20144;-78
2022/06/06 09:59:03;;;;;;;4.03;2.78;;;;;;;21.04;58.96;98714.16;5007011;28;20500;-78
2022/06/06 10:01:53;;;;;;;4.22;2.65;;;;;;;21.28;59.69;98712.53;5011637;28;20061;-78
2022/06/06 10:04:40;;;;;;;4.38;2.60;;;;;;;21.48;59.94;98706.44;5008014;28;20121;-78
2022/06/06 10:07:24;;;;;;;4.72;3.35;;;;;;;21.47;60.04;98698.63;5006345;28;20589;-78
2022/06/06 10:09:58;;;;;;;4.80;3.53;;;;;;;21.55;59.94;98701.31;5005652;28;20124;-78
2022/06/06 10:12:48;;;;;;;5.65;2.65;;;;;;;21.57;59.85;98696.38;5006740;28;20404;-78
2022/06/06 10:15:50;;;;;;;3.35;2.88;;;;;;;21.59;59.52;98690.59;5002878;28;20022;-78
2022/06/06 10:18:41;;;;;;;5.43;3.00;;;;;;;21.80;59.00;98701.56;5018525;28;20045;-78
2022/06/06 10:21:23;;;;;;;3.05;2.70;;;;;;;21.82;59.36;98691.94;5002153;28;20033;-78
2022/06/06 10:24:23;;;;;;;2.78;2.58;;;;;;;21.99;58.29;98682.97;5008711;28;20389;-78
2022/06/06 10:27:04;;;;;;;3.92;2.70;;;;;;;22.01;58.16;98680.72;5003129;28;20088;-78
2022/06/06 10:32:47;;;;;;;2.53;2.33;;;;;;;21.74;58.10;98692.78;5008243;28;20117;-78
2022/06/06 10:35:42;;;;;;;2.83;2.63;;;;;;;21.34;58.42;98681.38;5019921;28;20113;-78
2022/06/06 10:38:38;;;;;;;3.38;3.08;;;;;;;21.30;59.29;98693.22;5005723;28;20030;-78
2022/06/06 10:41:19;;;;;;;3.05;2.63;;;;;;;21.16;58.97;98698.03;5022725;28;20030;-78
2022/06/06 10:44:06;;;;;;;4.22;2.70;;;;;;;20.93;59.54;98710.94;5007128;28;20065;-78
2022/06/06 10:46:48;;;;;;;2.72;2.42;;;;;;;20.67;60.25;98732.63;5005170;28;20022;-78
2022/06/06 10:49:48;;;;;;;3.75;2.28;;;;;;;20.29;62.47;98722.66;5003813;28;20029;-78
2022/06/06 10:52:25;;;;;;;2.70;2.22;;;;;;;19.84;65.30;98721.94;5003044;28;20033;-78
2022/06/06 10:55:27;;;;;;;5.07;2.50;;;;;;;19.71;66.27;98712.00;5007649;28;20018;-77
2022/06/06 10:58:23;;;;;;;3.60;2.50;;;;;;;19.69;66.56;98714.22;5008178;28;20061;-79
2022/06/06 11:01:14;;;;;;;4.05;3.38;;;;;;;19.74;66.29;98716.81;5003537;28;20057;-78
2022/06/06 11:04:17;;;;;;;3.22;2.58;;;;;;;19.91;65.39;98717.69;5004497;28;20057;-78
2022/06/06 11:06:51;;;;;;;2.85;2.03;;;;;;;20.27;63.50;98714.81;5021623;28;20038;-78
2022/06/06 11:09:45;;;;;;;3.60;2.30;;;;;;;20.46;63.85;98711.84;5004905;28;20041;-78
2022/06/06 11:12:41;;;;;;;2.78;2.22;;;;;;;20.48;62.90;98709.63;5004207;28;20029;-78
2022/06/06 11:15:06;;;;;;;4.30;2.25;;;;;;;20.40;62.82;98716.59;5004195;28;20024;-78
2022/06/06 11:18:05;;;;;;;2.30;2.10;;;;;;;20.47;62.33;98713.41;4990491;28;20417;-78
2022/06/06 11:20:58;;;;;;;4.00;2.22;;;;;;;20.47;62.29;98716.13;5001855;28;20108;-78
2022/06/06 11:23:42;;;;;;;5.28;2.15;;;;;;;20.33;63.61;98713.56;5000508;28;20068;-78
2022/06/06 11:26:25;;;;;;;3.75;2.65;;;;;;;20.43;61.72;98712.47;5003313;28;20061;-78
2022/06/06 11:29:13;;;;;;;3.85;2.70;;;;;;;20.48;61.14;98705.00;4998393;28;20030;-78
2022/06/06 11:32:03;;;;;;;4.82;2.35;;;;;;;20.60;61.30;98712.50;4999987;28;20057;-78
2022/06/06 11:34:32;;;;;;;4.60;2.70;;;;;;;20.71;61.89;98698.31;5018080;28;20029;-78
2022/06/06 11:37:06;;;;;;;6.47;2.78;;;;;;;20.91;60.84;98700.41;5000008;28;20061;-78
2022/06/06 11:40:09;;;;;;;3.40;2.47;;;;;;;21.21;60.90;98692.44;4999183;28;20068;-78
2022/06/06 11:42:56;;;;;;;5.55;2.88;;;;;;;21.22;60.58;98692.13;5005454;28;20032;-78
2022/06/06 11:45:41;;;;;;;3.25;2.75;;;;;;;21.26;60.73;98700.41;5002788;28;20527;-79
2022/06/06 11:48:34;;;;;;;3.45;2.92;;;;;;;21.17;60.10;98705.84;5018003;28;20060;-78
2022/06/06 11:51:35;;;;;;;6.53;2.55;;;;;;;21.34;59.02;98705.06;5014190;28;20441;-78
2022/06/06 11:54:18;;;;;;;5.63;2.30;;;;;;;21.29;58.84;98689.72;5020805;28;20049;-78
2022/06/06 11:57:18;;;;;;;3.28;2.97;;;;;;;21.65;58.77;98698.25;5013778;28;21194;-78
2022/06/06 12:00:03;;;;;;;2.50;2.30;;;;;;;21.99;57.80;98689.22;5010737;28;20030;-78
2022/06/06 12:03:00;;;;;;;4.35;2.17;;;;;;;22.15;57.08;98686.72;5008389;28;20026;-78
2022/06/06 12:05:40;;;;;;;2.78;2.50;;;;;;;22.12;56.96;98676.53;5014005;28;20065;-78
2022/06/06 12:08:24;;;;;;;3.70;2.63;;;;;;;22.35;56.60;98675.91;4994835;28;20300;-78
2022/06/06 12:10:55;;;;;;;5.30;2.88;;;;;;;22.59;56.12;98680.72;5000462;28;20120;-78
2022/06/06 12:13:47;;;;;;;2.88;2.58;;;;;;;22.78;55.68;98683.78;5003831;28;20107;-79
2022/06/06 12:16:20;;;;;;;2.53;2.20;;;;;;;22.67;55.93;98687.25;5001674;28;20564;-78
2022/06/06 12:19:00;;;;;;;2.72;2.40;;;;;;;22.74;55.50;98684.78;5003022;28;20440;-78
2022/06/06 12:21:35;;;;;;;2.75;2.28;;;;;;;22.46;56.22;98668.16;5006644;28;20022;-78
2022/06/06 12:24:31;;;;;;;2.78;2.40;;;;;;;22.49;56.13;98677.59;5017827;28;20567;-78
2022/06/06 12:27:28;;;;;;;4.13;2.88;;;;;;;22.55;55.86;98676.25;5002563;28;20520;-78
2022/06/06 12:30:09;;;;;;;3.45;2.63;;;;;;;22.46;55.97;98670.88;5004305;28;20124;-78
2022/06/06 12:32:50;;;;;;;2.22;2.00;;;;;;;22.19;56.47;98668.66;5006193;28;20037;-78
2022/06/06 12:35:37;;;;;;;5.20;2.55;;;;;;;21.88;55.89;98666.25;5003094;28;20026;-77
2022/06/06 12:38:29;;;;;;;5.85;2.55;;;;;;;22.41;54.33;98652.00;5002165;28;20087;-77
2022/06/06 12:41:16;;;;;;;2.05;1.95;;;;;;;23.17;53.07;98636.22;5006181;28;20532;-77
2022/06/06 12:43:58;;;;;;;3.58;1.77;;;;;;;23.77;52.13;98646.47;5007998;28;20032;-77
2022/06/06 12:46:45;;;;;;;3.30;2.22;;;;;;;24.01;51.31;98643.75;5003475;28;20049;-77
2022/06/06 12:49:13;;;;;;;2.20;2.00;;;;;;;24.38;50.98;98637.16;5013946;28;20034;-77
2022/06/06 12:51:56;;;;;;;3.63;2.25;;;;;;;24.44;51.34;98635.00;5014597;28;20033;-77